Time,TemperatureF,DewpointF,PressureIn,WindDirection,WindDirectionDegrees,WindSpeedMPH,WindSpeedGustMPH,Humidity,HourlyPrecipIn,Conditions,Clouds,dailyrainin,SoftwareType,DateUTC
2013-04-18 00:03:00,44.0,-99.9,30.32,North,-999,-999.0,-999.0,-999,-99.99,,,-99.99,,2013-04-18 04:03:00,
2013-04-18 00:13:00,44.0,-99.9,30.33,North,-999,-999.0,-999.0,-999,-99.99,,,-99.99,,2013-04-18 04:13:00,
2013-04-18 00:23:00,44.0,-99.9,30.33,West,270,-999.0,2.0,-999,-99.99,,,-99.99,,2013-04-18 04:23:00,
2013-04-18 00:33:00,43.0,-99.9,30.33,North,-999,-999.0,-999.0,-999,-99.99,,,-99.99,,2013-04-18 04:33:00,
2013-04-18 00:43:00,43.0,-99.9,30.34,SSW,210,0.0,1.0,-999,-99.99,,,-99.99,,2013-04-18 04:43:00,
2013-04-18 00:53:00,44.0,-99.9,30.33,SSE,149,-999.0,3.0,-999,-99.99,,,-99.99,,2013-04-18 04:53:00,
2013-04-18 01:02:00,44.0,-99.9,30.33,SSE,149,-999.0,3.0,-999,-99.99,,,-99.99,,2013-04-18 05:02:00,
2013-04-18 01:12:00,44.0,-99.9,30.34,West,262,0.0,3.0,-999,-99.99,,,-99.99,,2013-04-18 05:12:00,
2013-04-18 01:22:00,44.0,-99.9,30.35,West,274,-999.0,1.0,-999,-99.99,,,-99.99,,2013-04-18 05:22:00,
2013-04-18 01:33:00,43.0,-99.9,30.35,West,261,-999.0,2.0,-999,-99.99,,,-99.99,,2013-04-18 05:33:00,
2013-04-18 01:42:00,42.0,-99.9,30.35,North,-999,-999.0,-999.0,-999,-99.99,,,-99.99,,2013-04-18 05:42:00,
2013-04-18 01:52:00,42.0,-99.9,30.36,North,-999,-999.0,-999.0,-999,-99.99,,,-99.99,,2013-04-18 05:52:00,
2013-04-18 02:02:00,41.0,-99.9,30.36,WSW,248,-999.0,1.0,-999,-99.99,,,-99.99,,2013-04-18 06:02:00,
2013-04-18 02:12:00,41.0,-99.9,30.36,NNW,327,1.0,2.0,-999,-99.99,,,-99.99,,2013-04-18 06:12:00,
2013-04-18 02:22:00,41.0,-99.9,30.36,SSW,194,-999.0,0.0,-999,-99.99,,,-99.99,,2013-04-18 06:22:00,
2013-04-18 02:32:00,42.0,-99.9,30.36,North,-999,-999.0,-999.0,-999,-99.99,,,-99.99,,2013-04-18 06:32:00,
2013-04-18 02:42:00,41.0,-99.9,30.36,North,-999,-999.0,-999.0,-999,-99.99,,,-99.99,,2013-04-18 06:42:00,
2013-04-18 02:52:00,41.0,-99.9,30.36,North,-999,-999.0,-999.0,-999,-99.99,,,-99.99,,2013-04-18 06:52:00,
2013-04-18 03:02:00,42.0,-99.9,30.36,West,274,-999.0,1.0,-999,-99.99,,,-99.99,,2013-04-18 07:02:00,
2013-04-18 03:12:00,41.0,-99.9,30.36,North,-999,-999.0,-999.0,-999,-99.99,,,-99.99,,2013-04-18 07:12:00,
2013-04-18 03:22:00,42.0,-99.9,30.36,North,-999,-999.0,-999.0,-999,-99.99,,,-99.99,,2013-04-18 07:22:00,
2013-04-18 03:32:00,41.0,-99.9,30.35,North,-999,-999.0,-999.0,-999,-99.99,,,-99.99,,2013-04-18 07:32:00,
2013-04-18 03:42:00,41.0,-99.9,30.35,ESE,102,-999.0,1.0,-999,-99.99,,,-99.99,,2013-04-18 07:42:00,
2013-04-18 03:53:00,41.0,-99.9,30.35,North,-999,-999.0,-999.0,-999,-99.99,,,-99.99,,2013-04-18 07:53:00,
2013-04-18 04:02:00,41.0,-99.9,30.35,SW,234,0.0,-999.0,-999,-99.99,,,-99.99,,2013-04-18 08:02:00,
2013-04-18 04:12:00,41.0,-99.9,30.36,SSE,168,-999.0,1.0,-999,-99.99,,,-99.99,,2013-04-18 08:12:00,
2013-04-18 04:22:00,41.0,-99.9,30.37,NW,322,1.0,-999.0,-999,-99.99,,,-99.99,,2013-04-18 08:22:00,
2013-04-18 04:32:00,42.0,-99.9,30.37,WNW,302,1.0,2.0,-999,-99.99,,,-99.99,,2013-04-18 08:32:00,
2013-04-18 04:42:00,42.0,-99.9,30.37,North,8,1.0,1.0,-999,-99.99,,,-99.99,,2013-04-18 08:42:00,
2013-04-18 04:52:00,42.0,-99.9,30.38,NNW,347,2.0,4.0,-999,-99.99,,,-99.99,,2013-04-18 08:52:00,
2013-04-18 05:02:00,42.0,-99.9,30.38,NW,324,1.0,2.0,-999,-99.99,,,-99.99,,2013-04-18 09:02:00,
2013-04-18 05:12:00,42.0,-99.9,30.39,NW,306,1.0,2.0,-999,-99.99,,,-99.99,,2013-04-18 09:12:00,
2013-04-18 05:22:00,42.0,-99.9,30.39,NNW,328,0.0,4.0,-999,-99.99,,,-99.99,,2013-04-18 09:22:00,
2013-04-18 05:33:00,42.0,-99.9,30.39,North,350,2.0,3.0,-999,-99.99,,,-99.99,,2013-04-18 09:33:00,
2013-04-18 05:43:00,43.0,-99.9,30.39,NNW,340,3.0,3.0,-999,-99.99,,,-99.99,,2013-04-18 09:43:00,
2013-04-18 05:53:00,43.0,-99.9,30.39,North,359,4.0,5.0,-999,-99.99,,,-99.99,,2013-04-18 09:53:00,
2013-04-18 06:03:00,45.0,-99.9,30.39,NNE,29,4.0,5.0,-999,-99.99,,,-99.99,,2013-04-18 10:03:00,
2013-04-18 06:12:00,46.0,-99.9,30.39,NE,34,5.0,8.0,-999,-99.99,,,-99.99,,2013-04-18 10:12:00,
2013-04-18 06:23:00,46.0,-99.9,30.39,NE,34,5.0,7.0,-999,-99.99,,,-99.99,,2013-04-18 10:23:00,
2013-04-18 06:33:00,46.0,-99.9,30.40,NE,41,4.0,7.0,-999,-99.99,,,-99.99,,2013-04-18 10:33:00,
2013-04-18 06:42:00,47.0,-99.9,30.40,ENE,68,6.0,11.0,-999,-99.99,,,-99.99,,2013-04-18 10:42:00,
2013-04-18 06:53:00,47.0,-99.9,30.40,ENE,65,7.0,9.0,-999,-99.99,,,-99.99,,2013-04-18 10:53:00,
2013-04-18 07:03:00,47.0,-99.9,30.40,ENE,76,8.0,11.0,-999,-99.99,,,-99.99,,2013-04-18 11:03:00,
2013-04-18 07:12:00,47.0,-99.9,30.40,ENE,78,10.0,10.0,-999,-99.99,,,-99.99,,2013-04-18 11:12:00,
2013-04-18 07:22:00,47.0,-99.9,30.40,East,85,12.0,14.0,-999,-99.99,,,-99.99,,2013-04-18 11:22:00,
2013-04-18 07:33:00,47.0,-99.9,30.40,East,89,9.0,13.0,-999,-99.99,,,-99.99,,2013-04-18 11:33:00,
2013-04-18 07:42:00,47.0,-99.9,30.40,East,87,10.0,12.0,-999,-99.99,,,-99.99,,2013-04-18 11:42:00,
2013-04-18 07:52:00,48.0,-99.9,30.40,East,88,13.0,15.0,-999,-99.99,,,-99.99,,2013-04-18 11:52:00,
2013-04-18 08:02:00,48.0,-99.9,30.40,East,89,13.0,16.0,-999,-99.99,,,-99.99,,2013-04-18 12:02:00,
2013-04-18 08:12:00,48.0,-99.9,30.40,East,92,11.0,16.0,-999,-99.99,,,-99.99,,2013-04-18 12:12:00,
2013-04-18 08:23:00,49.0,-99.9,30.40,East,98,9.0,14.0,-999,-99.99,,,-99.99,,2013-04-18 12:23:00,
2013-04-18 08:32:00,49.0,-99.9,30.41,ESE,108,10.0,17.0,-999,-99.99,,,-99.99,,2013-04-18 12:32:00,
2013-04-18 08:42:00,49.0,-99.9,30.41,East,101,11.0,17.0,-999,-99.99,,,-99.99,,2013-04-18 12:42:00,
2013-04-18 08:53:00,49.0,-99.9,30.41,ESE,108,12.0,20.0,-999,-99.99,,,-99.99,,2013-04-18 12:53:00,
2013-04-18 09:03:00,49.0,-99.9,30.42,ESE,107,12.0,18.0,-999,-99.99,,,-99.99,,2013-04-18 13:03:00,
2013-04-18 09:13:00,49.0,-99.9,30.42,ESE,107,11.0,17.0,-999,-99.99,,,-99.99,,2013-04-18 13:13:00,
2013-04-18 09:22:00,50.0,-99.9,30.42,ESE,113,10.0,14.0,-999,-99.99,,,-99.99,,2013-04-18 13:22:00,
2013-04-18 09:33:00,50.0,-99.9,30.41,ESE,113,10.0,17.0,-999,-99.99,,,-99.99,,2013-04-18 13:33:00,
2013-04-18 09:43:00,50.0,-99.9,30.42,ESE,115,12.0,17.0,-999,-99.99,,,-99.99,,2013-04-18 13:43:00,
2013-04-18 09:53:00,50.0,-99.9,30.42,ESE,113,11.0,18.0,-999,-99.99,,,-99.99,,2013-04-18 13:53:00,
2013-04-18 10:03:00,50.0,-99.9,30.42,ESE,118,12.0,19.0,-999,-99.99,,,-99.99,,2013-04-18 14:03:00,
2013-04-18 10:13:00,50.0,-99.9,30.42,ESE,114,13.0,18.0,-999,-99.99,,,-99.99,,2013-04-18 14:13:00,
2013-04-18 10:22:00,51.0,-99.9,30.42,SE,124,8.0,17.0,-999,-99.99,,,-99.99,,2013-04-18 14:22:00,
2013-04-18 10:33:00,51.0,-99.9,30.42,SE,129,13.0,20.0,-999,-99.99,,,-99.99,,2013-04-18 14:33:00,
2013-04-18 10:43:00,51.0,-99.9,30.42,ESE,118,9.0,19.0,-999,-99.99,,,-99.99,,2013-04-18 14:43:00,
2013-04-18 10:52:00,51.0,-99.9,30.41,SE,133,13.0,19.0,-999,-99.99,,,-99.99,,2013-04-18 14:52:00,
2013-04-18 11:03:00,51.0,-99.9,30.41,SE,129,13.0,19.0,-999,-99.99,,,-99.99,,2013-04-18 15:03:00,
2013-04-18 11:12:00,51.0,-99.9,30.41,SE,127,14.0,17.0,-999,-99.99,,,-99.99,,2013-04-18 15:12:00,
2013-04-18 11:23:00,51.0,-99.9,30.41,ESE,122,13.0,19.0,-999,-99.99,,,-99.99,,2013-04-18 15:23:00,
2013-04-18 11:33:00,51.0,-99.9,30.42,SE,126,11.0,18.0,-999,-99.99,,,-99.99,,2013-04-18 15:33:00,
2013-04-18 11:43:00,51.0,-99.9,30.42,SE,130,10.0,15.0,-999,-99.99,,,-99.99,,2013-04-18 15:43:00,
2013-04-18 11:53:00,51.0,-99.9,30.42,SE,135,13.0,17.0,-999,-99.99,,,-99.99,,2013-04-18 15:53:00,
2013-04-18 12:03:00,51.0,-99.9,30.42,SE,134,13.0,19.0,-999,-99.99,,,-99.99,,2013-04-18 16:03:00,
2013-04-18 12:13:00,51.0,-99.9,30.42,SE,132,11.0,16.0,-999,-99.99,,,-99.99,,2013-04-18 16:13:00,
2013-04-18 12:23:00,51.0,-99.9,30.41,SE,129,12.0,15.0,-999,-99.99,,,-99.99,,2013-04-18 16:23:00,
2013-04-18 12:33:00,51.0,-99.9,30.42,SE,142,10.0,16.0,-999,-99.99,,,-99.99,,2013-04-18 16:33:00,
2013-04-18 12:43:00,51.0,-99.9,30.42,SE,136,9.0,17.0,-999,-99.99,,,-99.99,,2013-04-18 16:43:00,
2013-04-18 12:53:00,51.0,-99.9,30.42,SE,139,12.0,17.0,-999,-99.99,,,-99.99,,2013-04-18 16:53:00,
2013-04-18 13:03:00,51.0,-99.9,30.41,SE,137,9.0,16.0,-999,-99.99,,,-99.99,,2013-04-18 17:03:00,
2013-04-18 13:13:00,51.0,-99.9,30.41,SE,132,13.0,19.0,-999,-99.99,,,-99.99,,2013-04-18 17:13:00,
2013-04-18 13:22:00,51.0,-99.9,30.40,SE,140,10.0,17.0,-999,-99.99,,,-99.99,,2013-04-18 17:22:00,
2013-04-18 13:33:00,52.0,-99.9,30.40,SE,142,10.0,15.0,-999,-99.99,,,-99.99,,2013-04-18 17:33:00,
2013-04-18 13:43:00,51.0,-99.9,30.40,SE,132,10.0,15.0,-999,-99.99,,,-99.99,,2013-04-18 17:43:00,
2013-04-18 13:52:00,51.0,-99.9,30.40,SE,131,9.0,14.0,-999,-99.99,,,-99.99,,2013-04-18 17:52:00,
2013-04-18 14:03:00,52.0,-99.9,30.40,SE,137,8.0,14.0,-999,-99.99,,,-99.99,,2013-04-18 18:03:00,
2013-04-18 14:13:00,52.0,-99.9,30.40,SSE,149,8.0,14.0,-999,-99.99,,,-99.99,,2013-04-18 18:13:00,
2013-04-18 14:23:00,52.0,-99.9,30.39,SE,142,10.0,15.0,-999,-99.99,,,-99.99,,2013-04-18 18:23:00,
2013-04-18 14:33:00,52.0,-99.9,30.39,SE,140,9.0,13.0,-999,-99.99,,,-99.99,,2013-04-18 18:33:00,
2013-04-18 14:43:00,52.0,-99.9,30.39,SSE,159,6.0,13.0,-999,-99.99,,,-99.99,,2013-04-18 18:43:00,
2013-04-18 14:53:00,52.0,-99.9,30.39,SE,141,7.0,13.0,-999,-99.99,,,-99.99,,2013-04-18 18:53:00,
2013-04-18 15:03:00,52.0,-99.9,30.38,SSE,155,8.0,12.0,-999,-99.99,,,-99.99,,2013-04-18 19:03:00,
2013-04-18 15:13:00,52.0,-99.9,30.38,SE,140,9.0,13.0,-999,-99.99,,,-99.99,,2013-04-18 19:13:00,
2013-04-18 15:22:00,52.0,-99.9,30.37,SSE,157,9.0,16.0,-999,-99.99,,,-99.99,,2013-04-18 19:22:00,
2013-04-18 15:33:00,52.0,-99.9,30.37,SE,144,11.0,16.0,-999,-99.99,,,-99.99,,2013-04-18 19:33:00,
2013-04-18 15:43:00,52.0,-99.9,30.36,SSE,148,7.0,15.0,-999,-99.99,,,-99.99,,2013-04-18 19:43:00,
2013-04-18 15:53:00,53.0,-99.9,30.36,SE,142,8.0,14.0,-999,-99.99,,,-99.99,,2013-04-18 19:53:00,
2013-04-18 16:03:00,52.0,-99.9,30.35,SE,141,10.0,15.0,-999,-99.99,,,-99.99,,2013-04-18 20:03:00,
2013-04-18 16:12:00,52.0,-99.9,30.35,SE,145,9.0,14.0,-999,-99.99,,,-99.99,,2013-04-18 20:12:00,
2013-04-18 16:22:00,52.0,-99.9,30.35,SSE,151,6.0,15.0,-999,-99.99,,,-99.99,,2013-04-18 20:22:00,
2013-04-18 16:32:00,52.0,-99.9,30.34,SSE,153,8.0,17.0,-999,-99.99,,,-99.99,,2013-04-18 20:32:00,
2013-04-18 16:43:00,52.0,-99.9,30.34,SE,145,10.0,16.0,-999,-99.99,,,-99.99,,2013-04-18 20:43:00,
2013-04-18 16:52:00,52.0,-99.9,30.34,SE,140,11.0,15.0,-999,-99.99,,,-99.99,,2013-04-18 20:52:00,
2013-04-18 17:03:00,52.0,-99.9,30.33,SE,145,8.0,16.0,-999,-99.99,,,-99.99,,2013-04-18 21:03:00,
2013-04-18 17:12:00,52.0,-99.9,30.33,SE,144,10.0,16.0,-999,-99.99,,,-99.99,,2013-04-18 21:12:00,
2013-04-18 17:22:00,52.0,-99.9,30.33,SSE,147,6.0,15.0,-999,-99.99,,,-99.99,,2013-04-18 21:22:00,
2013-04-18 17:33:00,52.0,-99.9,30.33,SE,142,8.0,15.0,-999,-99.99,,,-99.99,,2013-04-18 21:33:00,
2013-04-18 17:43:00,52.0,-99.9,30.33,SE,141,8.0,13.0,-999,-99.99,,,-99.99,,2013-04-18 21:43:00,
2013-04-18 17:53:00,51.0,-99.9,30.33,SE,144,6.0,11.0,-999,-99.99,,,-99.99,,2013-04-18 21:53:00,
2013-04-18 18:03:00,51.0,-99.9,30.32,SSE,147,7.0,15.0,-999,-99.99,,,-99.99,,2013-04-18 22:03:00,
2013-04-18 18:13:00,51.0,-99.9,30.32,SE,139,9.0,16.0,-999,-99.99,,,-99.99,,2013-04-18 22:13:00,
2013-04-18 18:23:00,51.0,-99.9,30.31,SE,143,6.0,14.0,-999,-99.99,,,-99.99,,2013-04-18 22:23:00,
2013-04-18 18:33:00,50.0,-99.9,30.31,SE,136,9.0,13.0,-999,-99.99,,,-99.99,,2013-04-18 22:33:00,
2013-04-18 18:42:00,50.0,-99.9,30.31,SE,137,7.0,13.0,-999,-99.99,,,-99.99,,2013-04-18 22:42:00,
2013-04-18 18:53:00,50.0,-99.9,30.31,SE,140,9.0,14.0,-999,-99.99,,,-99.99,,2013-04-18 22:53:00,
2013-04-18 19:04:00,50.0,-99.9,30.30,SE,134,9.0,14.0,-999,-99.99,,,-99.99,,2013-04-18 23:04:00,
2013-04-18 19:12:00,49.0,-99.9,30.29,SE,144,9.0,14.0,-999,-99.99,,,-99.99,,2013-04-18 23:12:00,
2013-04-18 19:22:00,49.0,-99.9,30.29,SE,141,7.0,15.0,-999,-99.99,,,-99.99,,2013-04-18 23:22:00,
2013-04-18 19:32:00,49.0,-99.9,30.29,SSE,150,7.0,16.0,-999,-99.99,,,-99.99,,2013-04-18 23:32:00,
2013-04-18 19:42:00,49.0,-99.9,30.29,SE,140,5.0,11.0,-999,-99.99,,,-99.99,,2013-04-18 23:42:00,
2013-04-18 19:52:00,48.0,-99.9,30.29,SSE,148,8.0,13.0,-999,-99.99,,,-99.99,,2013-04-18 23:52:00,
2013-04-18 20:01:00,48.0,-99.9,30.29,SE,135,6.0,13.0,-999,-99.99,,,-99.99,,2013-04-19 00:01:00,
2013-04-18 20:12:00,48.0,-99.9,30.29,SE,135,7.0,11.0,-999,-99.99,,,-99.99,,2013-04-19 00:12:00,
2013-04-18 20:22:00,48.0,-99.9,30.29,SE,140,6.0,11.0,-999,-99.99,,,-99.99,,2013-04-19 00:22:00,
2013-04-18 20:32:00,48.0,-99.9,30.29,SSE,147,6.0,10.0,-999,-99.99,,,-99.99,,2013-04-19 00:32:00,
2013-04-18 20:42:00,47.0,-99.9,30.29,SSE,152,4.0,11.0,-999,-99.99,,,-99.99,,2013-04-19 00:42:00,
2013-04-18 20:52:00,47.0,-99.9,30.29,SE,146,6.0,11.0,-999,-99.99,,,-99.99,,2013-04-19 00:52:00,
2013-04-18 21:01:00,47.0,-99.9,30.29,SE,145,5.0,11.0,-999,-99.99,,,-99.99,,2013-04-19 01:01:00,
2013-04-18 21:11:00,47.0,-99.9,30.29,SSE,148,5.0,11.0,-999,-99.99,,,-99.99,,2013-04-19 01:11:00,
2013-04-18 21:21:00,47.0,-99.9,30.29,SE,146,6.0,10.0,-999,-99.99,,,-99.99,,2013-04-19 01:21:00,
2013-04-18 21:32:00,47.0,-99.9,30.29,SE,146,7.0,11.0,-999,-99.99,,,-99.99,,2013-04-19 01:32:00,
2013-04-18 21:42:00,47.0,-99.9,30.28,SSE,150,7.0,15.0,-999,-99.99,,,-99.99,,2013-04-19 01:42:00,
2013-04-18 21:52:00,47.0,-99.9,30.27,SSE,148,6.0,16.0,-999,-99.99,,,-99.99,,2013-04-19 01:52:00,
2013-04-18 22:02:00,47.0,-99.9,30.27,SSE,160,8.0,16.0,-999,-99.99,,,-99.99,,2013-04-19 02:02:00,
2013-04-18 22:11:00,47.0,-99.9,30.26,SSE,150,9.0,17.0,-999,-99.99,,,-99.99,,2013-04-19 02:11:00,
2013-04-18 22:21:00,48.0,-99.9,30.26,SSE,155,8.0,15.0,-999,-99.99,,,-99.99,,2013-04-19 02:21:00,
2013-04-18 22:32:00,48.0,-99.9,30.25,SSE,155,9.0,17.0,-999,-99.99,,,-99.99,,2013-04-19 02:32:00,
2013-04-18 22:42:00,48.0,-99.9,30.24,SSE,150,8.0,16.0,-999,-99.99,,,-99.99,,2013-04-19 02:42:00,
2013-04-18 22:52:00,48.0,-99.9,30.24,SSE,154,9.0,17.0,-999,-99.99,,,-99.99,,2013-04-19 02:52:00,
2013-04-18 23:01:00,49.0,-99.9,30.23,SSE,153,8.0,17.0,-999,-99.99,,,-99.99,,2013-04-19 03:01:00,
2013-04-18 23:12:00,49.0,-99.9,30.23,SSE,153,9.0,17.0,-999,-99.99,,,-99.99,,2013-04-19 03:12:00,
2013-04-18 23:22:00,49.0,-99.9,30.22,SSE,154,8.0,17.0,-999,-99.99,,,-99.99,,2013-04-19 03:22:00,
2013-04-18 23:33:00,49.0,-99.9,30.21,SSE,154,8.0,19.0,-999,-99.99,,,-99.99,,2013-04-19 03:33:00,
2013-04-18 23:43:00,50.0,-99.9,30.21,SSE,165,10.0,17.0,-999,-99.99,,,-99.99,,2013-04-19 03:43:00,
2013-04-18 23:54:00,49.0,-99.9,30.21,SSE,162,10.0,20.0,-999,-99.99,,,-99.99,,2013-04-19 03:54:00,